createdAt,value
2019-04-03T00:02:04.048Z,68.00
2019-04-03T00:04:34.385Z,67.80
2019-04-03T00:07:03.857Z,67.80
2019-04-03T00:09:33.031Z,68.20
2019-04-03T00:14:29.664Z,68.30
2019-04-03T00:16:58.071Z,68.30
2019-04-03T00:19:26.603Z,68.40
2019-04-03T00:21:55.161Z,68.50
2019-04-03T00:24:23.646Z,68.40
2019-04-03T00:26:52.839Z,68.40
2019-04-03T00:29:22.642Z,68.20
2019-04-03T00:34:22.973Z,68.30
2019-04-03T00:36:53.034Z,68.20
2019-04-03T00:39:23.959Z,68.30
2019-04-03T00:41:52.928Z,68.20
2019-04-03T00:49:44.334Z,68.70
2019-04-03T00:54:41.679Z,68.60
2019-04-03T00:57:10.168Z,68.60
2019-04-03T00:59:38.748Z,68.60
2019-04-03T01:02:07.241Z,68.60
2019-04-03T01:04:36.351Z,68.70
2019-04-03T01:09:33.700Z,68.80
2019-04-03T01:12:02.097Z,68.60
2019-04-03T01:14:31.636Z,68.70
2019-04-03T01:19:28.679Z,68.90
2019-04-03T01:21:57.158Z,68.80
2019-04-03T01:27:04.907Z,69.10
2019-04-03T01:29:33.441Z,69.10
2019-04-03T01:32:01.837Z,69.20
2019-04-03T01:34:30.254Z,69.00
2019-04-03T01:36:58.653Z,69.40
2019-04-03T01:39:27.073Z,69.40
2019-04-03T01:41:55.609Z,69.40
2019-04-03T01:44:24.705Z,69.20
2019-04-03T01:46:53.740Z,69.20
2019-04-03T01:49:22.186Z,69.50
2019-04-03T01:51:50.586Z,69.50
2019-04-03T01:54:19.007Z,69.60
2019-04-03T01:56:47.409Z,69.70
2019-04-03T01:59:15.858Z,69.60
2019-04-03T02:04:13.085Z,69.70
2019-04-03T02:06:43.498Z,69.80
2019-04-03T02:09:12.430Z,70.00
2019-04-03T02:11:42.384Z,70.00
2019-04-03T02:14:10.859Z,69.90
2019-04-03T02:16:39.460Z,69.80
2019-04-03T02:19:08.189Z,69.80
2019-04-03T02:24:50.128Z,70.10
2019-04-03T02:27:18.532Z,70.10
2019-04-03T02:29:49.616Z,69.90
2019-04-03T02:32:18.275Z,70.10
2019-04-03T02:34:46.919Z,70.00
2019-04-03T02:37:16.874Z,70.10
2019-04-03T02:39:45.545Z,70.20
2019-04-03T02:42:14.215Z,70.30
2019-04-03T02:44:42.627Z,70.30
2019-04-03T02:47:11.034Z,70.50
2019-04-03T02:49:41.334Z,70.80
2019-04-03T02:52:10.012Z,70.40
2019-04-03T02:55:04.593Z,70.30
2019-04-03T03:02:30.167Z,73.90
2019-04-03T03:07:36.409Z,73.30
2019-04-03T03:10:07.110Z,73.20
2019-04-03T03:12:38.344Z,73.00
2019-04-03T03:17:46.206Z,72.90
2019-04-03T03:20:16.515Z,72.80
2019-04-03T03:27:43.354Z,72.70
2019-04-03T03:36:02.362Z,72.80
2019-04-03T03:38:31.589Z,72.90
2019-04-03T03:41:00.112Z,73.00
2019-04-03T03:43:28.810Z,73.00
2019-04-03T03:45:57.866Z,73.20
2019-04-03T03:48:26.962Z,73.50
2019-04-03T03:50:58.031Z,73.40
2019-04-03T03:53:26.586Z,73.10
2019-04-03T03:58:22.249Z,73.20
2019-04-03T04:03:20.787Z,73.30
2019-04-03T04:05:53.823Z,73.00
2019-04-03T04:08:20.484Z,73.70
2019-04-03T04:10:50.141Z,73.80
2019-04-03T04:16:16.956Z,74.20
2019-04-03T04:18:45.479Z,74.30
2019-04-03T04:21:15.116Z,74.50
2019-04-03T04:23:44.402Z,74.40
2019-04-03T04:26:13.565Z,74.50
2019-04-03T04:33:40.384Z,74.40
2019-04-03T04:36:08.781Z,74.40
2019-04-03T04:38:37.419Z,74.40
2019-04-03T04:41:05.943Z,74.30
2019-04-03T04:43:34.679Z,74.40
2019-04-03T04:48:31.161Z,74.30
2019-04-03T04:50:59.591Z,74.30
2019-04-03T04:53:29.870Z,74.50
2019-04-03T04:55:58.144Z,74.60
2019-04-03T05:00:54.916Z,74.70
2019-04-03T05:03:23.311Z,74.80
2019-04-03T05:05:51.704Z,74.80
2019-04-03T05:08:20.189Z,75.20
2019-04-03T05:13:18.017Z,74.80
2019-04-03T05:15:46.414Z,74.70
2019-04-03T05:20:43.187Z,74.80
2019-04-03T05:28:08.547Z,74.70
2019-04-03T05:30:56.543Z,74.70
2019-04-03T05:40:51.160Z,74.70
2019-04-03T05:43:19.595Z,74.70
2019-04-03T05:53:14.062Z,74.30
2019-04-03T05:55:42.457Z,74.20
2019-04-03T05:58:11.031Z,74.10
2019-04-03T06:00:39.556Z,73.90
2019-04-03T06:03:07.958Z,73.50
2019-04-03T06:05:36.419Z,73.20
2019-04-03T06:08:05.266Z,72.90
2019-04-03T06:10:36.544Z,72.90
2019-04-03T06:15:33.771Z,72.40
2019-04-03T06:18:02.166Z,72.40
2019-04-03T06:20:30.731Z,72.10
2019-04-03T06:22:59.151Z,71.60
2019-04-03T06:25:30.018Z,71.50
2019-04-03T06:30:26.365Z,71.10
2019-04-03T06:32:55.410Z,70.90
2019-04-03T06:40:22.177Z,70.90
2019-04-03T06:42:50.863Z,70.80
2019-04-03T06:45:19.588Z,70.90
2019-04-03T06:50:17.567Z,70.90
2019-04-03T06:52:46.346Z,71.20
2019-04-03T07:00:11.744Z,71.40
2019-04-03T07:02:40.191Z,71.40
2019-04-03T07:07:38.421Z,70.90
2019-04-03T07:12:36.929Z,69.60
2019-04-03T07:15:07.185Z,70.10
2019-04-03T07:20:13.517Z,69.00
2019-04-03T07:22:35.250Z,67.10
2019-04-03T07:25:04.700Z,65.40
2019-04-03T07:27:33.463Z,64.80
2019-04-03T07:30:04.315Z,64.10
2019-04-03T07:32:32.864Z,63.90
2019-04-03T07:35:02.848Z,62.80
2019-04-03T07:37:31.533Z,61.80
2019-04-03T07:40:00.138Z,61.10
2019-04-03T07:44:56.883Z,59.90
2019-04-03T07:49:53.472Z,59.90
2019-04-03T07:59:47.885Z,59.40
2019-04-03T08:02:16.285Z,59.20
2019-04-03T08:04:44.829Z,59.00
2019-04-03T08:07:13.533Z,57.80
2019-04-03T08:10:01.684Z,57.80
2019-04-03T08:14:58.436Z,57.30
2019-04-03T08:17:26.876Z,57.00
2019-04-03T08:19:55.338Z,55.80
2019-04-03T08:25:12.564Z,55.90
2019-04-03T08:27:41.323Z,55.70
2019-04-03T08:30:11.029Z,55.70
2019-04-03T08:37:40.629Z,56.50
2019-04-03T08:42:37.378Z,54.90
2019-04-03T08:45:10.515Z,55.00
2019-04-03T08:47:39.360Z,54.00
2019-04-03T08:50:10.487Z,54.50
2019-04-03T08:52:39.641Z,54.70
2019-04-03T08:55:09.354Z,54.10
2019-04-03T08:57:37.782Z,53.00
2019-04-03T09:02:36.157Z,54.80
2019-04-03T09:07:34.343Z,55.80
2019-04-03T09:12:31.310Z,56.60
2019-04-03T09:15:00.013Z,55.70
2019-04-03T09:27:23.030Z,54.90
2019-04-03T09:29:51.738Z,53.10
2019-04-03T09:34:50.010Z,53.10
2019-04-03T09:37:18.756Z,53.10
2019-04-03T09:39:47.311Z,52.90
2019-04-03T09:42:16.295Z,52.20
2019-04-03T09:44:44.734Z,53.10
2019-04-03T09:49:43.754Z,52.60
2019-04-03T09:52:11.498Z,52.90
2019-04-03T09:54:41.597Z,52.10
2019-04-03T09:57:10.401Z,52.10
2019-04-03T09:59:38.888Z,51.50
2019-04-03T10:04:35.560Z,49.60
2019-04-03T10:07:04.171Z,51.20
2019-04-03T10:12:20.877Z,50.90
2019-04-03T10:14:50.476Z,50.50
2019-04-03T10:22:15.277Z,48.30
2019-04-03T10:24:44.022Z,48.20
2019-04-03T10:27:12.658Z,48.50
2019-04-03T10:29:41.213Z,47.30
2019-04-03T10:32:09.780Z,47.50
2019-04-03T10:34:38.175Z,47.50
2019-04-03T10:42:03.783Z,47.50
2019-04-03T10:47:00.488Z,48.80
2019-04-03T10:49:31.537Z,49.70
2019-04-03T10:54:27.266Z,51.50
2019-04-03T10:56:55.906Z,52.30
2019-04-03T10:59:24.313Z,52.20
2019-04-03T11:04:20.887Z,51.40
2019-04-03T11:06:49.299Z,51.90
2019-04-03T11:09:17.797Z,52.40
2019-04-03T11:11:46.393Z,52.90
2019-04-03T11:14:15.104Z,53.30
2019-04-03T11:16:46.469Z,53.20
2019-04-03T11:21:44.115Z,52.90
2019-04-03T11:24:12.367Z,53.30
2019-04-03T11:26:40.956Z,53.00
2019-04-03T11:29:10.425Z,52.20
2019-04-03T11:31:41.887Z,53.50
2019-04-03T11:36:38.191Z,52.30
2019-04-03T11:39:14.927Z,53.40
2019-04-03T11:41:39.564Z,52.70
2019-04-03T11:44:08.260Z,53.20
2019-04-03T11:46:36.988Z,53.00
2019-04-03T11:49:05.568Z,53.00
2019-04-03T11:51:34.533Z,52.70
2019-04-03T11:56:31.926Z,52.70
2019-04-03T11:59:00.600Z,51.40
2019-04-03T12:01:29.755Z,52.30
2019-04-03T12:03:58.421Z,50.40
2019-04-03T12:06:27.400Z,48.80
2019-04-03T12:08:55.907Z,48.00
2019-04-03T12:11:24.304Z,48.50
2019-04-03T12:13:52.758Z,47.40
2019-04-03T12:16:24.013Z,48.20
2019-04-03T12:18:51.628Z,47.00
2019-04-03T12:21:20.357Z,46.90
2019-04-03T12:26:19.810Z,46.40
2019-04-03T12:28:49.031Z,47.00
2019-04-03T12:31:17.421Z,46.50
2019-04-03T12:33:53.154Z,47.10
2019-04-03T12:36:15.977Z,47.80
2019-04-03T12:38:44.509Z,47.10
2019-04-03T12:41:13.412Z,46.90
2019-04-03T12:46:10.265Z,47.20
2019-04-03T12:48:38.986Z,47.10
2019-04-03T12:51:07.624Z,47.30
2019-04-03T12:53:36.031Z,47.30
2019-04-03T12:56:04.440Z,47.20
2019-04-03T12:58:52.186Z,47.10
2019-04-03T13:01:20.842Z,46.60
2019-04-03T13:04:08.818Z,47.10
2019-04-03T13:06:40.600Z,47.10
2019-04-03T13:09:09.398Z,47.40
2019-04-03T13:11:37.855Z,46.40
2019-04-03T13:14:06.320Z,45.80
2019-04-03T13:16:34.709Z,46.20
2019-04-03T13:19:24.542Z,46.50
2019-04-03T13:21:52.696Z,46.40
2019-04-03T13:24:21.427Z,47.00
2019-04-03T13:26:50.402Z,47.20
2019-04-03T13:29:20.845Z,48.10
2019-04-03T13:31:49.051Z,47.90
2019-04-03T13:34:17.630Z,47.80
2019-04-03T13:36:46.211Z,48.00
2019-04-03T13:39:14.779Z,47.20
2019-04-03T13:41:43.384Z,47.10
2019-04-03T13:44:12.386Z,47.10
2019-04-03T13:46:40.933Z,47.20
2019-04-03T13:49:09.564Z,47.90
2019-04-03T13:51:38.385Z,47.80
2019-04-03T13:54:08.000Z,47.10
2019-04-03T13:56:37.029Z,48.00
2019-04-03T13:59:05.885Z,47.00
2019-04-03T14:01:34.700Z,47.10
2019-04-03T14:04:03.686Z,47.50
2019-04-03T14:09:00.678Z,47.40
2019-04-03T14:11:30.920Z,47.20
2019-04-03T14:13:59.512Z,47.30
2019-04-03T14:16:27.936Z,47.90
2019-04-03T14:18:56.646Z,47.90
2019-04-03T14:21:27.592Z,47.80
2019-04-03T14:23:55.520Z,47.50
2019-04-03T14:26:24.010Z,46.70
2019-04-03T14:28:52.476Z,47.40
2019-04-03T14:31:32.724Z,48.00
2019-04-03T14:33:51.106Z,47.80
2019-04-03T14:36:19.659Z,48.10
2019-04-03T14:43:46.399Z,48.40
2019-04-03T14:46:17.302Z,48.20
2019-04-03T14:48:44.966Z,48.30
2019-04-03T14:51:13.472Z,48.70
2019-04-03T14:53:42.381Z,48.90
2019-04-03T14:58:39.273Z,48.80
2019-04-03T15:01:07.920Z,48.70
2019-04-03T15:03:37.109Z,49.20
2019-04-03T15:06:05.860Z,49.50
2019-04-03T15:08:34.631Z,49.20
2019-04-03T15:16:01.202Z,49.30
2019-04-03T15:18:30.227Z,49.30
2019-04-03T15:20:58.807Z,49.50
2019-04-03T15:23:27.252Z,49.30
2019-04-03T15:25:55.811Z,49.30
2019-04-03T15:28:24.444Z,49.30
2019-04-03T15:30:52.862Z,49.60
2019-04-03T15:33:23.039Z,49.20
2019-04-03T15:35:51.419Z,50.00
2019-04-03T15:40:48.864Z,50.10
2019-04-03T15:45:45.826Z,50.50
2019-04-03T15:50:42.383Z,50.40
2019-04-03T15:53:10.796Z,50.50
2019-04-03T15:55:39.580Z,50.20
2019-04-03T15:58:08.329Z,50.10
2019-04-03T16:00:36.998Z,50.90
2019-04-03T16:05:35.997Z,50.40
2019-04-03T16:08:04.511Z,50.70
2019-04-03T16:10:32.916Z,50.70
2019-04-03T16:13:01.326Z,50.70
2019-04-03T16:15:29.910Z,50.90
2019-04-03T16:17:58.958Z,51.20
2019-04-03T16:20:27.667Z,51.20
2019-04-03T16:22:56.214Z,50.90
2019-04-03T16:25:24.669Z,51.20
2019-04-03T16:27:53.322Z,51.30
2019-04-03T16:30:41.335Z,51.30
2019-04-03T16:33:19.843Z,51.40
2019-04-03T16:35:39.887Z,51.60
2019-04-03T16:38:08.352Z,51.30
2019-04-03T16:40:38.269Z,51.30
2019-04-03T16:43:06.979Z,51.40
2019-04-03T16:45:37.737Z,52.10
2019-04-03T16:48:05.729Z,51.80
2019-04-03T16:50:34.741Z,52.20
2019-04-03T16:53:03.479Z,52.20
2019-04-03T16:55:32.912Z,51.80
2019-04-03T16:58:01.363Z,52.20
2019-04-03T17:00:29.836Z,52.30
2019-04-03T17:02:58.354Z,52.30
2019-04-03T17:05:26.856Z,52.50
2019-04-03T17:07:55.657Z,52.60
2019-04-03T17:10:24.219Z,52.50
2019-04-03T17:12:54.685Z,52.90
2019-04-03T17:15:23.611Z,52.70
2019-04-03T17:17:52.083Z,52.90
2019-04-03T17:20:39.829Z,52.60
2019-04-03T17:23:10.986Z,52.90
2019-04-03T17:28:10.202Z,53.00
2019-04-03T17:30:38.339Z,52.90
2019-04-03T17:33:06.756Z,53.00
2019-04-03T17:35:35.253Z,53.00
2019-04-03T17:38:03.863Z,53.00
2019-04-03T17:43:00.402Z,53.40
2019-04-03T17:45:28.862Z,53.50
2019-04-03T17:52:53.440Z,54.00
2019-04-03T17:55:21.853Z,54.00
2019-04-03T17:57:50.321Z,54.20
2019-04-03T18:02:49.967Z,54.30
2019-04-03T18:05:19.211Z,54.50
2019-04-03T18:07:47.612Z,54.50
2019-04-03T18:10:16.169Z,54.50
2019-04-03T18:12:45.793Z,54.40
2019-04-03T18:17:47.345Z,54.50
2019-04-03T18:20:16.531Z,54.50
2019-04-03T18:22:44.948Z,54.80
2019-04-03T18:25:13.634Z,54.80
2019-04-03T18:32:46.644Z,54.80
2019-04-03T18:35:15.344Z,54.80
2019-04-03T18:40:13.879Z,55.00
2019-04-03T18:42:42.125Z,55.10
2019-04-03T18:45:24.076Z,55.00
2019-04-03T18:47:43.843Z,55.10
2019-04-03T18:52:39.529Z,55.50
2019-04-03T18:55:08.475Z,55.60
2019-04-03T18:57:36.920Z,55.60
2019-04-03T19:00:08.406Z,55.70
2019-04-03T19:02:37.424Z,55.70
2019-04-03T19:05:09.877Z,55.80
2019-04-03T19:07:37.963Z,55.80
2019-04-03T19:10:07.827Z,56.00
2019-04-03T19:17:36.477Z,56.00
2019-04-03T19:20:10.800Z,56.20
2019-04-03T19:32:36.479Z,56.60
2019-04-03T19:37:38.090Z,56.70
2019-04-03T19:40:09.438Z,56.80
2019-04-03T19:42:37.143Z,57.00
2019-04-03T19:45:12.825Z,57.00
2019-04-03T19:50:09.475Z,57.30
2019-04-03T19:52:41.584Z,57.50
2019-04-03T19:55:08.465Z,57.50
2019-04-03T19:57:36.885Z,57.60
2019-04-03T20:03:03.553Z,58.10
2019-04-03T20:08:00.107Z,58.40
2019-04-03T20:10:28.557Z,58.50
2019-04-03T20:12:56.948Z,58.60
2019-04-03T20:17:54.901Z,59.60
2019-04-03T20:20:23.673Z,60.40
2019-04-03T20:22:52.135Z,62.40
2019-04-03T20:27:51.367Z,65.10
2019-04-03T20:30:18.861Z,65.70
2019-04-03T20:32:47.311Z,66.60
2019-04-03T20:35:17.883Z,68.20
2019-04-03T20:40:20.000Z,69.00
2019-04-03T20:42:48.451Z,70.20
2019-04-03T20:45:17.148Z,70.90
2019-04-03T20:47:47.055Z,71.70
2019-04-03T20:50:16.273Z,71.70
2019-04-03T20:52:46.272Z,72.50
2019-04-03T20:55:15.086Z,73.30
2019-04-03T20:57:54.993Z,73.50
2019-04-03T21:00:18.041Z,73.50
2019-04-03T21:05:13.214Z,73.40
2019-04-03T21:10:10.076Z,73.70
2019-04-03T21:12:38.543Z,73.80
2019-04-03T21:17:36.787Z,73.70
2019-04-03T21:20:08.571Z,73.90
2019-04-03T21:22:38.533Z,73.40
2019-04-03T21:27:39.835Z,73.80
2019-04-03T21:30:09.116Z,74.10
2019-04-03T21:32:37.630Z,74.30
2019-04-03T21:37:34.114Z,74.00
2019-04-03T21:40:04.949Z,73.90
2019-04-03T21:42:32.676Z,74.10
2019-04-03T21:45:02.801Z,74.10
2019-04-03T21:47:31.221Z,74.10
2019-04-03T21:49:59.628Z,74.20
2019-04-03T21:52:28.037Z,74.20
2019-04-03T21:54:58.398Z,74.20
2019-04-03T21:57:26.584Z,74.00
2019-04-03T21:59:54.982Z,74.00
2019-04-03T22:02:23.391Z,74.10
2019-04-03T22:04:51.894Z,74.00
2019-04-03T22:07:21.959Z,74.40
2019-04-03T22:09:50.390Z,74.70
2019-04-03T22:12:18.846Z,74.30
2019-04-03T22:17:15.304Z,74.10
2019-04-03T22:24:39.958Z,74.30
2019-04-03T22:27:11.303Z,74.30
2019-04-03T22:37:04.478Z,74.10
2019-04-03T22:39:32.876Z,74.10
2019-04-03T22:44:29.427Z,74.40
2019-04-03T22:46:57.921Z,74.60
2019-04-03T22:49:26.369Z,74.60
2019-04-03T22:51:54.784Z,74.50
2019-04-03T22:56:51.304Z,74.60
2019-04-03T22:59:19.714Z,74.80
2019-04-03T23:01:48.185Z,74.60
2019-04-03T23:04:16.589Z,74.60
2019-04-03T23:06:44.990Z,74.70
2019-04-03T23:09:13.407Z,74.60
2019-04-03T23:11:41.796Z,74.60
2019-04-03T23:14:10.208Z,74.40
2019-04-03T23:21:34.807Z,74.40
2019-04-03T23:26:32.068Z,74.70
2019-04-03T23:29:03.018Z,74.60
2019-04-03T23:33:59.596Z,74.50
2019-04-03T23:38:56.718Z,74.20
2019-04-03T23:41:25.554Z,74.30
2019-04-03T23:43:53.963Z,74.30
2019-04-03T23:46:22.458Z,74.30
2019-04-03T23:48:50.871Z,74.40
2019-04-03T23:51:23.553Z,74.30
2019-04-03T23:56:38.616Z,74.40
2019-04-03T23:59:05.759Z,74.40
